createdAt,value
2022-11-27T00:01:28.286Z,52.67
2022-11-27T00:03:55.855Z,52.54
2022-11-27T00:06:25.531Z,52.51
2022-11-27T00:08:52.229Z,52.63
2022-11-27T00:11:25.112Z,52.38
2022-11-27T00:13:52.901Z,52.62
2022-11-27T00:16:20.954Z,52.34
2022-11-27T00:18:48.549Z,52.57
2022-11-27T00:21:19.111Z,52.42
2022-11-27T00:23:45.640Z,52.43
2022-11-27T00:26:12.270Z,52.42
2022-11-27T00:28:39.516Z,52.19
2022-11-27T00:31:16.422Z,52.71
2022-11-27T00:33:43.140Z,52.28
2022-11-27T00:36:10.473Z,52.40
2022-11-27T00:38:39.142Z,52.39
2022-11-27T00:41:09.652Z,52.31
2022-11-27T00:43:44.155Z,52.59
2022-11-27T00:46:15.807Z,52.08
2022-11-27T00:48:43.431Z,52.21
2022-11-27T00:51:13.023Z,52.36
2022-11-27T00:53:39.897Z,52.38
2022-11-27T00:56:07.493Z,52.21
2022-11-27T00:58:38.269Z,52.08
2022-11-27T01:01:07.326Z,52.31
2022-11-27T01:03:35.516Z,52.42
2022-11-27T01:06:04.717Z,52.32
2022-11-27T01:08:31.730Z,52.39
2022-11-27T01:10:59.016Z,52.21
2022-11-27T01:13:31.121Z,52.58
2022-11-27T01:16:06.683Z,52.11
2022-11-27T01:18:35.074Z,52.19
2022-11-27T01:21:02.385Z,52.49
2022-11-27T01:23:29.728Z,52.14
2022-11-27T01:25:56.521Z,52.16
2022-11-27T01:28:24.148Z,52.26
2022-11-27T01:30:51.904Z,52.29
2022-11-27T01:33:19.556Z,52.06
2022-11-27T01:36:06.167Z,52.18
2022-11-27T01:38:33.123Z,52.47
2022-11-27T01:41:08.814Z,52.02
2022-11-27T01:43:59.448Z,51.83
2022-11-27T01:46:32.301Z,52.10
2022-11-27T01:49:22.202Z,51.89
2022-11-27T01:52:08.941Z,52.19
2022-11-27T01:55:08.689Z,51.78
2022-11-27T01:57:43.897Z,52.23
2022-11-27T02:00:14.151Z,52.10
2022-11-27T02:02:41.615Z,52.34
2022-11-27T02:05:09.348Z,52.09
2022-11-27T02:07:36.463Z,52.23
2022-11-27T02:10:05.510Z,52.17
2022-11-27T02:12:53.613Z,52.14
2022-11-27T02:15:23.275Z,51.94
2022-11-27T02:18:11.339Z,52.03
2022-11-27T02:20:46.005Z,51.82
2022-11-27T02:23:35.985Z,51.87
2022-11-27T02:26:33.257Z,52.13
2022-11-27T02:29:14.632Z,51.96
2022-11-27T02:31:50.324Z,51.93
2022-11-27T02:34:37.864Z,51.85
2022-11-27T02:37:18.909Z,51.71
2022-11-27T02:39:56.036Z,51.77
2022-11-27T02:42:23.957Z,52.26
2022-11-27T02:45:00.701Z,51.93
2022-11-27T02:47:30.165Z,52.07
2022-11-27T02:49:59.509Z,52.12
2022-11-27T02:52:28.011Z,51.97
2022-11-27T02:55:03.824Z,52.03
2022-11-27T02:57:31.156Z,52.36
2022-11-27T02:59:58.732Z,52.41
2022-11-27T03:02:32.871Z,52.55
2022-11-27T03:05:04.046Z,51.95
2022-11-27T03:07:44.361Z,51.94
2022-11-27T03:10:27.406Z,51.98
2022-11-27T03:12:53.995Z,52.00
2022-11-27T03:15:23.052Z,52.11
2022-11-27T03:18:02.603Z,51.88
2022-11-27T03:20:40.056Z,51.63
2022-11-27T03:23:06.799Z,51.69
2022-11-27T03:25:33.589Z,51.65
2022-11-27T03:28:03.748Z,52.01
2022-11-27T03:30:30.455Z,52.45
2022-11-27T03:32:57.556Z,51.86
2022-11-27T03:35:27.109Z,51.74
2022-11-27T03:37:54.693Z,51.93
2022-11-27T03:40:29.309Z,52.03
2022-11-27T03:43:08.556Z,51.66
2022-11-27T03:45:59.761Z,51.86
2022-11-27T03:48:42.939Z,52.43
2022-11-27T03:51:15.316Z,52.16
2022-11-27T03:53:59.240Z,51.99
2022-11-27T03:56:36.687Z,52.58
2022-11-27T03:59:13.971Z,52.46
2022-11-27T04:01:40.970Z,51.88
2022-11-27T04:04:07.906Z,52.03
2022-11-27T04:06:34.591Z,52.42
2022-11-27T04:09:01.487Z,52.06
2022-11-27T04:11:28.060Z,51.93
2022-11-27T04:13:54.576Z,52.03
2022-11-27T04:16:21.778Z,52.43
2022-11-27T04:18:48.453Z,52.31
2022-11-27T04:21:15.526Z,51.67
2022-11-27T04:23:42.545Z,51.94
2022-11-27T04:26:09.127Z,52.25
2022-11-27T04:28:36.208Z,52.08
2022-11-27T04:31:02.741Z,52.28
2022-11-27T04:33:29.399Z,52.28
2022-11-27T04:35:56.118Z,52.15
2022-11-27T04:38:22.986Z,52.15
2022-11-27T04:40:52.721Z,52.18
2022-11-27T04:43:20.029Z,51.69
2022-11-27T04:45:46.622Z,51.65
2022-11-27T04:48:13.131Z,51.95
2022-11-27T04:50:39.820Z,52.20
2022-11-27T04:53:06.775Z,52.18
2022-11-27T04:55:33.852Z,52.02
2022-11-27T04:58:00.501Z,51.99
2022-11-27T05:00:27.095Z,51.85
2022-11-27T05:02:53.679Z,51.54
2022-11-27T05:05:20.660Z,51.74
2022-11-27T05:07:47.200Z,52.06
2022-11-27T05:10:13.844Z,51.67
2022-11-27T05:12:40.436Z,51.71
2022-11-27T05:15:07.777Z,52.03
2022-11-27T05:17:34.346Z,51.83
2022-11-27T05:20:01.453Z,51.80
2022-11-27T05:22:28.024Z,51.89
2022-11-27T05:24:54.564Z,52.03
2022-11-27T05:27:21.083Z,52.03
2022-11-27T05:29:48.129Z,51.87
2022-11-27T05:32:14.685Z,51.84
2022-11-27T05:34:41.433Z,51.96
2022-11-27T05:37:08.214Z,51.70
2022-11-27T05:39:34.841Z,51.76
2022-11-27T05:42:01.396Z,51.59
2022-11-27T05:44:28.268Z,52.11
2022-11-27T05:46:54.870Z,52.01
2022-11-27T05:49:21.449Z,51.91
2022-11-27T05:51:51.403Z,51.55
2022-11-27T05:54:19.080Z,51.63
2022-11-27T05:56:45.694Z,51.81
2022-11-27T05:59:12.719Z,51.94
2022-11-27T06:01:39.443Z,52.24
2022-11-27T06:04:06.532Z,51.98
2022-11-27T06:06:33.063Z,52.04
2022-11-27T06:09:00.817Z,52.27
2022-11-27T06:11:27.587Z,51.96
2022-11-27T06:13:54.153Z,51.58
2022-11-27T06:16:24.003Z,51.92
2022-11-27T06:18:55.256Z,51.98
2022-11-27T06:21:23.352Z,52.34
2022-11-27T06:23:55.298Z,52.12
2022-11-27T06:26:25.124Z,52.15
2022-11-27T06:28:53.615Z,52.24
2022-11-27T06:31:23.348Z,52.11
2022-11-27T06:33:51.940Z,51.75
2022-11-27T06:36:19.856Z,52.12
2022-11-27T06:38:47.487Z,52.06
2022-11-27T06:41:16.946Z,51.76
2022-11-27T06:43:44.392Z,52.04
2022-11-27T06:46:16.454Z,51.87
2022-11-27T06:48:45.334Z,52.27
2022-11-27T06:51:14.282Z,52.10
2022-11-27T06:53:41.931Z,52.06
2022-11-27T06:56:12.523Z,52.13
2022-11-27T06:58:39.847Z,52.18
2022-11-27T07:01:09.575Z,51.88
2022-11-27T07:03:36.801Z,52.16
2022-11-27T07:06:06.757Z,51.87
2022-11-27T07:08:34.709Z,51.68
2022-11-27T07:11:07.167Z,51.92
2022-11-27T07:13:34.084Z,52.13
2022-11-27T07:16:04.008Z,51.89
2022-11-27T07:18:34.231Z,52.02
2022-11-27T07:21:00.758Z,52.04
2022-11-27T07:23:27.322Z,52.06
2022-11-27T07:25:53.875Z,52.10
2022-11-27T07:28:20.489Z,52.04
2022-11-27T07:30:57.136Z,51.79
2022-11-27T07:33:24.820Z,52.14
2022-11-27T07:36:07.805Z,51.99
2022-11-27T07:38:35.174Z,51.79
2022-11-27T07:41:03.471Z,51.91
2022-11-27T07:43:31.583Z,52.13
2022-11-27T07:45:58.440Z,52.12
2022-11-27T07:48:25.153Z,52.25
2022-11-27T07:50:52.143Z,52.23
2022-11-27T07:53:18.723Z,51.91
2022-11-27T07:55:45.269Z,52.07
2022-11-27T07:58:12.233Z,52.30
2022-11-27T08:00:38.899Z,52.77
2022-11-27T08:03:05.547Z,52.83
2022-11-27T08:05:34.646Z,52.71
2022-11-27T08:08:04.354Z,52.34
2022-11-27T08:10:34.497Z,52.69
2022-11-27T08:13:01.106Z,52.24
2022-11-27T08:15:27.760Z,52.22
2022-11-27T08:17:54.814Z,52.23
2022-11-27T08:20:21.887Z,52.21
2022-11-27T08:22:48.995Z,52.17
2022-11-27T08:25:15.686Z,52.19
2022-11-27T08:27:42.275Z,51.97
2022-11-27T08:30:09.393Z,51.85
2022-11-27T08:32:39.688Z,52.07
2022-11-27T08:35:07.154Z,51.85
2022-11-27T08:37:34.257Z,52.29
2022-11-27T08:40:00.923Z,52.46
2022-11-27T08:42:27.460Z,51.82
2022-11-27T08:44:54.019Z,52.09
2022-11-27T08:47:20.546Z,52.08
2022-11-27T08:49:47.647Z,51.94
2022-11-27T08:52:14.211Z,52.18
2022-11-27T08:54:40.960Z,52.31
2022-11-27T08:57:07.695Z,52.31
2022-11-27T08:59:34.772Z,52.44
2022-11-27T09:02:01.331Z,52.49
2022-11-27T09:04:28.902Z,52.44
2022-11-27T09:06:58.522Z,52.35
2022-11-27T09:09:25.623Z,52.44
2022-11-27T09:11:54.437Z,52.38
2022-11-27T09:14:21.482Z,52.49
2022-11-27T09:16:48.296Z,52.42
2022-11-27T09:19:15.088Z,52.67
2022-11-27T09:21:41.633Z,52.56
2022-11-27T09:24:09.654Z,52.68
2022-11-27T09:26:36.259Z,52.66
2022-11-27T09:29:03.942Z,52.47
2022-11-27T09:31:31.060Z,52.66
2022-11-27T09:33:58.560Z,52.61
2022-11-27T09:36:26.549Z,52.58
2022-11-27T09:38:53.799Z,52.54
2022-11-27T09:41:39.573Z,52.75
2022-11-27T09:44:12.742Z,52.64
2022-11-27T09:46:42.601Z,52.68
2022-11-27T09:49:15.976Z,52.70
2022-11-27T09:51:53.918Z,52.64
2022-11-27T09:54:52.221Z,52.59
2022-11-27T09:57:24.375Z,52.79
2022-11-27T09:59:53.609Z,52.81
2022-11-27T10:02:32.678Z,52.93
2022-11-27T10:05:16.995Z,52.92
2022-11-27T10:08:06.620Z,52.83
2022-11-27T10:10:49.225Z,52.92
2022-11-27T10:13:25.082Z,52.99
2022-11-27T10:15:56.964Z,53.09
2022-11-27T10:18:47.926Z,52.99
2022-11-27T10:21:38.209Z,53.04
2022-11-27T10:24:36.907Z,53.34
2022-11-27T10:27:17.396Z,53.18
2022-11-27T10:29:50.283Z,53.21
2022-11-27T10:35:19.410Z,53.43
2022-11-27T10:37:58.834Z,53.43
2022-11-27T10:40:37.391Z,53.35
2022-11-27T10:43:21.777Z,53.66
2022-11-27T10:46:16.283Z,53.47
2022-11-27T10:48:45.054Z,53.25
2022-11-27T10:51:37.173Z,53.58
2022-11-27T10:54:12.185Z,53.51
2022-11-27T10:56:55.902Z,53.52
2022-11-27T10:59:34.425Z,53.87
2022-11-27T11:02:03.485Z,53.87
2022-11-27T11:04:37.912Z,53.99
2022-11-27T11:07:23.747Z,53.94
2022-11-27T11:09:50.349Z,54.08
2022-11-27T11:12:21.053Z,53.94
2022-11-27T11:14:59.152Z,53.89
2022-11-27T11:17:27.767Z,54.09
2022-11-27T11:19:54.847Z,54.08
2022-11-27T11:22:22.062Z,54.05
2022-11-27T11:24:54.030Z,54.25
2022-11-27T11:27:26.301Z,54.41
2022-11-27T11:29:58.758Z,55.48
2022-11-27T11:32:29.643Z,56.08
2022-11-27T11:35:01.320Z,55.90
2022-11-27T11:37:55.011Z,55.79
2022-11-27T11:40:34.058Z,55.91
2022-11-27T11:43:03.632Z,55.47
2022-11-27T11:45:33.160Z,55.42
2022-11-27T11:48:03.937Z,55.43
2022-11-27T11:50:41.697Z,55.38
2022-11-27T11:53:19.428Z,55.65
2022-11-27T11:55:52.419Z,55.27
2022-11-27T11:58:29.276Z,55.10
2022-11-27T12:01:26.744Z,55.45
2022-11-27T12:04:12.680Z,55.26
2022-11-27T12:07:30.455Z,55.26
2022-11-27T12:10:12.219Z,54.77
2022-11-27T12:13:04.670Z,54.95
2022-11-27T12:15:39.533Z,55.00
2022-11-27T12:18:30.628Z,54.90
2022-11-27T12:21:16.555Z,54.87
2022-11-27T12:24:01.196Z,54.67
2022-11-27T12:26:56.133Z,54.75
2022-11-27T12:29:22.681Z,54.67
2022-11-27T12:32:11.445Z,54.86
2022-11-27T12:34:53.243Z,55.01
2022-11-27T12:37:35.022Z,55.11
2022-11-27T12:40:16.349Z,54.72
2022-11-27T12:42:54.879Z,54.79
2022-11-27T12:45:27.386Z,54.60
2022-11-27T12:48:15.654Z,54.86
2022-11-27T12:50:48.196Z,54.89
2022-11-27T12:53:26.431Z,54.94
2022-11-27T12:56:21.366Z,54.87
2022-11-27T12:58:53.782Z,54.72
2022-11-27T13:01:27.650Z,54.79
2022-11-27T13:04:04.384Z,54.96
2022-11-27T13:06:35.217Z,54.66
2022-11-27T13:09:22.731Z,55.08
2022-11-27T13:11:50.072Z,54.83
2022-11-27T13:14:24.027Z,55.06
2022-11-27T13:16:54.285Z,54.91
2022-11-27T13:19:39.454Z,54.92
2022-11-27T13:22:12.421Z,54.98
2022-11-27T13:24:39.504Z,54.70
2022-11-27T13:27:13.860Z,54.79
2022-11-27T13:29:47.615Z,54.92
2022-11-27T13:32:29.281Z,54.93
2022-11-27T13:35:00.435Z,54.69
2022-11-27T13:37:38.162Z,54.73
2022-11-27T13:40:24.596Z,55.05
2022-11-27T13:42:55.109Z,54.88
2022-11-27T13:45:25.927Z,54.79
2022-11-27T13:47:54.032Z,54.91
2022-11-27T13:50:28.160Z,54.63
2022-11-27T13:53:07.361Z,54.80
2022-11-27T13:55:38.394Z,54.90
2022-11-27T13:58:07.220Z,54.72
2022-11-27T14:00:45.326Z,54.77
2022-11-27T14:03:29.434Z,54.83
2022-11-27T14:05:57.559Z,54.54
2022-11-27T14:08:31.504Z,54.77
2022-11-27T14:11:11.748Z,54.74
2022-11-27T14:13:45.838Z,54.93
2022-11-27T14:16:36.316Z,54.69
2022-11-27T14:19:33.316Z,54.76
2022-11-27T14:22:01.995Z,54.67
2022-11-27T14:24:36.725Z,54.85
2022-11-27T14:27:24.335Z,55.03
2022-11-27T14:29:52.139Z,54.64
2022-11-27T14:32:21.180Z,54.77
2022-11-27T14:34:48.795Z,54.72
2022-11-27T14:37:26.879Z,55.09
2022-11-27T14:39:54.355Z,54.66
2022-11-27T14:42:27.938Z,54.36
2022-11-27T14:45:08.127Z,54.54
2022-11-27T14:47:35.577Z,54.72
2022-11-27T14:50:04.062Z,54.57
2022-11-27T14:52:31.453Z,54.86
2022-11-27T14:54:59.021Z,54.72
2022-11-27T14:57:28.213Z,54.70
2022-11-27T15:00:27.195Z,55.11
2022-11-27T15:02:54.175Z,54.60
2022-11-27T15:05:27.343Z,54.83
2022-11-27T15:07:57.314Z,54.81
2022-11-27T15:10:29.889Z,54.95
2022-11-27T15:12:57.947Z,54.83
2022-11-27T15:15:27.572Z,54.62
2022-11-27T15:18:04.089Z,54.85
2022-11-27T15:20:45.609Z,54.81
2022-11-27T15:23:26.515Z,55.06
2022-11-27T15:26:15.942Z,54.87
2022-11-27T15:28:51.782Z,54.99
2022-11-27T15:31:30.823Z,55.14
2022-11-27T15:34:17.678Z,54.99
2022-11-27T15:36:49.420Z,54.93
2022-11-27T15:39:30.878Z,55.05
2022-11-27T15:42:02.607Z,55.02
2022-11-27T15:44:31.717Z,54.96
2022-11-27T15:47:00.630Z,54.82
2022-11-27T15:49:28.280Z,54.85
2022-11-27T15:51:55.715Z,54.88
2022-11-27T15:54:22.801Z,55.02
2022-11-27T15:56:49.579Z,55.00
2022-11-27T15:59:17.481Z,54.88
2022-11-27T16:01:44.672Z,54.95
2022-11-27T16:04:11.369Z,54.93
2022-11-27T16:06:38.392Z,54.97
2022-11-27T16:09:06.177Z,54.96
2022-11-27T16:11:33.576Z,54.91
2022-11-27T16:14:00.171Z,55.02
2022-11-27T16:16:27.044Z,54.82
2022-11-27T16:18:57.251Z,54.90
2022-11-27T16:21:29.217Z,54.81
2022-11-27T16:23:58.502Z,54.90
2022-11-27T16:26:26.145Z,54.83
2022-11-27T16:28:52.789Z,54.77
2022-11-27T16:31:19.726Z,54.87
2022-11-27T16:33:46.961Z,54.81
2022-11-27T16:36:16.131Z,54.84
2022-11-27T16:38:43.358Z,54.80
2022-11-27T16:41:15.609Z,54.97
2022-11-27T16:43:47.034Z,55.01
2022-11-27T16:46:30.403Z,55.24
2022-11-27T16:48:59.265Z,55.09
2022-11-27T16:51:32.268Z,54.85
2022-11-27T16:54:01.946Z,54.99
2022-11-27T16:56:29.961Z,54.88
2022-11-27T16:59:02.732Z,54.79
2022-11-27T17:01:34.401Z,54.91
2022-11-27T17:04:03.456Z,54.58
2022-11-27T17:06:32.659Z,54.70
2022-11-27T17:09:01.375Z,54.73
2022-11-27T17:11:32.955Z,54.89
2022-11-27T17:14:01.389Z,54.97
2022-11-27T17:16:28.531Z,54.99
2022-11-27T17:18:55.697Z,54.71
2022-11-27T17:21:26.392Z,54.97
2022-11-27T17:24:01.221Z,54.92
2022-11-27T17:26:30.411Z,54.99
2022-11-27T17:28:57.305Z,54.90
2022-11-27T17:31:30.844Z,54.77
2022-11-27T17:33:57.433Z,55.00
2022-11-27T17:36:28.106Z,54.83
2022-11-27T17:38:56.080Z,54.67
2022-11-27T17:41:23.107Z,54.95
2022-11-27T17:43:50.769Z,54.88
2022-11-27T17:46:23.903Z,54.75
2022-11-27T17:48:51.642Z,54.76
2022-11-27T17:51:18.742Z,54.79
2022-11-27T17:53:45.650Z,54.92
2022-11-27T17:56:15.618Z,54.92
2022-11-27T17:58:42.423Z,54.94
2022-11-27T18:01:17.097Z,54.96
2022-11-27T18:03:46.093Z,54.88
2022-11-27T18:06:13.707Z,54.92
2022-11-27T18:08:40.324Z,54.86
2022-11-27T18:11:13.591Z,55.17
2022-11-27T18:13:40.574Z,54.98
2022-11-27T18:16:16.473Z,55.09
2022-11-27T18:18:44.021Z,55.24
2022-11-27T18:21:19.841Z,55.39
2022-11-27T18:24:20.787Z,55.79
2022-11-27T18:27:00.551Z,55.37
2022-11-27T18:29:21.559Z,55.22
2022-11-27T18:31:49.372Z,55.24
2022-11-27T18:34:15.911Z,55.36
2022-11-27T18:36:42.464Z,55.27
2022-11-27T18:39:09.265Z,55.29
2022-11-27T18:41:37.293Z,55.26
2022-11-27T18:44:04.492Z,55.31
2022-11-27T18:46:31.872Z,55.31
2022-11-27T18:48:59.077Z,55.34
2022-11-27T18:51:26.605Z,55.05
2022-11-27T18:53:54.619Z,55.23
2022-11-27T18:56:23.721Z,55.37
2022-11-27T18:58:50.594Z,55.34
2022-11-27T19:01:23.371Z,55.55
2022-11-27T19:03:50.970Z,55.19
2022-11-27T19:06:19.300Z,55.22
2022-11-27T19:08:46.389Z,55.18
2022-11-27T19:11:19.596Z,55.41
2022-11-27T19:13:47.531Z,55.17
2022-11-27T19:16:17.809Z,55.08
2022-11-27T19:18:44.797Z,55.26
2022-11-27T19:21:14.233Z,55.06
2022-11-27T19:23:41.356Z,55.16
2022-11-27T19:26:10.344Z,55.14
2022-11-27T19:28:38.240Z,55.18
2022-11-27T19:31:10.852Z,55.24
2022-11-27T19:33:38.293Z,54.83
2022-11-27T19:36:08.650Z,55.07
2022-11-27T19:38:36.069Z,55.17
2022-11-27T19:41:04.283Z,55.34
2022-11-27T19:43:30.937Z,55.07
2022-11-27T19:45:58.175Z,55.17
2022-11-27T19:48:24.766Z,54.94
2022-11-27T19:50:51.791Z,55.00
2022-11-27T19:53:18.624Z,55.25
2022-11-27T19:55:52.891Z,55.15
2022-11-27T19:58:19.528Z,55.16
2022-11-27T20:00:46.169Z,55.22
2022-11-27T20:03:12.732Z,55.09
2022-11-27T20:05:39.283Z,55.19
2022-11-27T20:08:05.939Z,55.20
2022-11-27T20:10:32.556Z,55.12
2022-11-27T20:13:02.565Z,55.26
2022-11-27T20:15:29.970Z,55.08
2022-11-27T20:17:56.546Z,55.16
2022-11-27T20:20:23.173Z,55.04
2022-11-27T20:22:50.409Z,55.06
2022-11-27T20:25:20.111Z,55.18
2022-11-27T20:27:47.238Z,55.06
2022-11-27T20:30:14.030Z,55.24
2022-11-27T20:32:40.591Z,55.25
2022-11-27T20:35:07.574Z,55.21
2022-11-27T20:37:35.022Z,55.26
2022-11-27T20:40:02.276Z,55.32
2022-11-27T20:42:28.777Z,55.54
2022-11-27T20:44:55.291Z,55.48
2022-11-27T20:47:21.788Z,55.42
2022-11-27T20:49:48.285Z,55.42
2022-11-27T20:52:15.452Z,55.26
2022-11-27T20:54:43.053Z,55.50
2022-11-27T20:57:14.135Z,55.56
2022-11-27T20:59:41.861Z,55.35
2022-11-27T21:02:12.427Z,55.49
2022-11-27T21:04:39.060Z,55.04
2022-11-27T21:07:06.423Z,55.25
2022-11-27T21:09:34.272Z,55.24
2022-11-27T21:12:01.026Z,55.11
2022-11-27T21:14:27.664Z,55.23
2022-11-27T21:16:55.737Z,55.06
2022-11-27T21:19:26.606Z,55.20
2022-11-27T21:21:54.048Z,55.44
2022-11-27T21:24:23.929Z,55.21
2022-11-27T21:26:50.545Z,55.30
2022-11-27T21:29:17.256Z,55.22
2022-11-27T21:31:47.088Z,55.06
2022-11-27T21:34:14.432Z,55.01
2022-11-27T21:36:41.069Z,54.94
2022-11-27T21:39:08.919Z,55.09
2022-11-27T21:41:36.306Z,55.09
2022-11-27T21:44:04.310Z,55.02
2022-11-27T21:46:31.318Z,54.94
2022-11-27T21:49:00.402Z,55.16
2022-11-27T21:51:28.633Z,55.06
2022-11-27T21:53:56.572Z,55.01
2022-11-27T21:56:25.340Z,54.86
2022-11-27T21:58:52.242Z,54.91
2022-11-27T22:01:22.071Z,54.92
2022-11-27T22:03:51.437Z,54.90
2022-11-27T22:06:19.204Z,54.78
2022-11-27T22:08:48.025Z,54.88
2022-11-27T22:11:18.927Z,54.96
2022-11-27T22:13:46.016Z,54.89
2022-11-27T22:16:18.840Z,55.03
2022-11-27T22:18:46.189Z,54.75
2022-11-27T22:21:13.717Z,54.83
2022-11-27T22:23:41.316Z,55.05
2022-11-27T22:26:14.917Z,55.01
2022-11-27T22:28:42.197Z,54.60
2022-11-27T22:31:09.770Z,55.00
2022-11-27T22:33:37.107Z,55.69
2022-11-27T22:36:38.025Z,56.95
2022-11-27T22:39:07.480Z,56.42
2022-11-27T22:41:37.081Z,56.08
2022-11-27T22:44:08.342Z,56.15
2022-11-27T22:46:36.279Z,56.14
2022-11-27T22:49:05.280Z,56.14
2022-11-27T22:51:34.534Z,55.95
2022-11-27T22:54:02.360Z,55.99
2022-11-27T22:56:29.200Z,55.97
2022-11-27T22:59:17.473Z,55.60
2022-11-27T23:01:42.901Z,55.98
2022-11-27T23:04:09.451Z,55.60
2022-11-27T23:06:36.526Z,55.57
2022-11-27T23:09:03.160Z,55.73
2022-11-27T23:11:30.585Z,55.70
2022-11-27T23:13:58.142Z,55.66
2022-11-27T23:16:25.144Z,55.62
2022-11-27T23:18:51.901Z,55.74
2022-11-27T23:21:21.071Z,55.53
2022-11-27T23:23:48.286Z,55.54
2022-11-27T23:26:21.101Z,55.50
2022-11-27T23:28:50.509Z,55.32
2022-11-27T23:31:29.812Z,55.49
2022-11-27T23:33:57.243Z,55.50
2022-11-27T23:36:23.852Z,55.44
2022-11-27T23:38:50.418Z,55.31
2022-11-27T23:41:25.034Z,55.33
2022-11-27T23:43:52.787Z,55.24
2022-11-27T23:46:21.481Z,55.32
2022-11-27T23:48:48.855Z,55.21
2022-11-27T23:51:20.622Z,55.14
2022-11-27T23:53:48.598Z,55.24
2022-11-27T23:56:19.154Z,55.38
2022-11-27T23:58:47.588Z,55.09
